N365AD -KSAN
Flight info
| Callsign | N365AD |
|---|---|
| Flight time | N/A |
| Altitude | VFR |
| Route | |
| Aircraft | C172/L-VGD/C |
Departure
| Time | N/A |
|---|---|
| Airport | - |
Arrival
| Time | 2026-05-05 20:31 |
|---|---|
| Airport | San Diego International Airport (KSAN) |
| Time | Latitude | Longitude | Altitude | Speed | Heading |
|---|---|---|---|---|---|
| 2026-05-05 20:31 | 32.73325 | -117.17818 | 19 ft | 0 kts | 147° |
| 2026-05-05 20:33 | 32.73293 | -117.17791 | 19 ft | 18 kts | 140° |
| 2026-05-05 20:33 | 32.73179 | -117.17665 | 19 ft | 24 kts | 216° |
| 2026-05-05 20:33 | 32.73165 | -117.17696 | 19 ft | 4 kts | 272° |
| 2026-05-05 20:34 | 32.73156 | -117.17692 | 19 ft | 13 kts | 128° |
| 2026-05-05 20:34 | 32.73111 | -117.17669 | 18 ft | 0 kts | 208° |
| 2026-05-05 20:34 | 32.73070 | -117.17852 | 19 ft | 51 kts | 287° |
| 2026-05-05 20:34 | 32.73183 | -117.18286 | 288 ft | 60 kts | 288° |
| 2026-05-05 20:35 | 32.73276 | -117.18725 | 696 ft | 57 kts | 278° |
| 2026-05-05 20:35 | 32.73388 | -117.19191 | 1023 ft | 72 kts | 320° |
| 2026-05-05 20:35 | 32.73965 | -117.18994 | 1259 ft | 105 kts | 40° |
| 2026-05-05 20:35 | 32.73994 | -117.18146 | 1358 ft | 120 kts | 132° |
| 2026-05-05 20:36 | 32.73497 | -117.17308 | 1167 ft | 127 kts | 128° |
| 2026-05-05 20:36 | 32.72925 | -117.16541 | 876 ft | 108 kts | 165° |
| 2026-05-05 20:36 | 32.72520 | -117.16870 | 678 ft | 77 kts | 300° |
| 2026-05-05 20:36 | 32.72967 | -117.17444 | 150 ft | 91 kts | 283° |
| 2026-05-05 20:37 | 32.73140 | -117.18111 | 23 ft | 66 kts | 294° |
| 2026-05-05 20:37 | 32.73256 | -117.18521 | 21 ft | 42 kts | 281° |
| 2026-05-05 20:37 | 32.73341 | -117.18956 | 220 ft | 59 kts | 287° |
| 2026-05-05 20:37 | 32.73440 | -117.19400 | 656 ft | 48 kts | 275° |
| 2026-05-05 20:38 | 32.73524 | -117.19829 | 952 ft | 56 kts | 298° |
| 2026-05-05 20:38 | 32.73960 | -117.19961 | 1172 ft | 97 kts | 23° |
| 2026-05-05 20:38 | 32.74007 | -117.19097 | 1083 ft | 136 kts | 136° |
| 2026-05-05 20:38 | 32.73231 | -117.18821 | 1253 ft | 121 kts | 176° |
| 2026-05-05 20:39 | 32.72460 | -117.18325 | 1188 ft | 132 kts | 137° |
| 2026-05-05 20:39 | 32.72156 | -117.17411 | 870 ft | 113 kts | 69° |
| 2026-05-05 20:39 | 32.72688 | -117.17291 | 477 ft | 89 kts | 322° |
| 2026-05-05 20:39 | 32.73066 | -117.17827 | 84 ft | 85 kts | 289° |
| 2026-05-05 20:40 | 32.73219 | -117.18391 | 221 ft | 65 kts | 290° |
| 2026-05-05 20:40 | 32.73315 | -117.18878 | 637 ft | 62 kts | 284° |
| 2026-05-05 20:40 | 32.73420 | -117.19380 | 1028 ft | 63 kts | 278° |
| 2026-05-05 20:40 | 32.73509 | -117.19923 | 1294 ft | 73 kts | 282° |
| 2026-05-05 20:41 | 32.73643 | -117.20597 | 1353 ft | 89 kts | 281° |
| 2026-05-05 20:41 | 32.73781 | -117.21417 | 1145 ft | 92 kts | 278° |
| 2026-05-05 20:41 | 32.74030 | -117.21893 | 927 ft | 85 kts | 349° |
| 2026-05-05 20:41 | 32.74429 | -117.21356 | 808 ft | 107 kts | 105° |
| 2026-05-05 20:42 | 32.74246 | -117.20573 | 931 ft | 100 kts | 76° |
| 2026-05-05 20:42 | 32.74387 | -117.19759 | 919 ft | 114 kts | 75° |
| 2026-05-05 20:42 | 32.74562 | -117.18792 | 791 ft | 117 kts | 79° |
| 2026-05-05 20:42 | 32.74545 | -117.17968 | 1009 ft | 98 kts | 56° |
| 2026-05-05 20:43 | 32.74787 | -117.18271 | 826 ft | 106 kts | 216° |
| 2026-05-05 20:43 | 32.74304 | -117.17712 | 752 ft | 112 kts | 93° |
| 2026-05-05 20:43 | 32.74252 | -117.16827 | 888 ft | 105 kts | 90° |
| 2026-05-05 20:43 | 32.74250 | -117.15960 | 1003 ft | 105 kts | 84° |
| 2026-05-05 20:44 | 32.74318 | -117.15076 | 991 ft | 112 kts | 79° |
| 2026-05-05 20:44 | 32.74445 | -117.14185 | 1064 ft | 110 kts | 76° |
| 2026-05-05 20:44 | 32.74592 | -117.13353 | 1122 ft | 94 kts | 72° |
| 2026-05-05 20:44 | 32.74697 | -117.12628 | 1024 ft | 82 kts | 107° |
| 2026-05-05 20:45 | 32.73825 | -117.12673 | 812 ft | 76 kts | 253° |
| 2026-05-05 20:45 | 32.73565 | -117.13290 | 763 ft | 91 kts | 251° |
| 2026-05-05 20:45 | 32.73289 | -117.13913 | 652 ft | 77 kts | 245° |
| 2026-05-05 20:46 | 32.73028 | -117.14476 | 597 ft | 91 kts | 251° |
| 2026-05-05 20:46 | 32.72765 | -117.15238 | 638 ft | 104 kts | 260° |
| 2026-05-05 20:46 | 32.72743 | -117.16112 | 470 ft | 95 kts | 271° |
| 2026-05-05 20:46 | 32.72826 | -117.16799 | 289 ft | 77 kts | 289° |
| 2026-05-05 20:47 | 32.72959 | -117.17417 | 123 ft | 84 kts | 290° |
| 2026-05-05 20:47 | 32.73119 | -117.18022 | 20 ft | 67 kts | 289° |
| 2026-05-05 20:47 | 32.73238 | -117.18459 | 20 ft | 46 kts | 283° |
| 2026-05-05 20:47 | 32.73313 | -117.18761 | 19 ft | 32 kts | 288° |
| 2026-05-05 20:48 | 32.73367 | -117.19077 | 104 ft | 53 kts | 285° |